Prospect Creek, Prospect Cree, AK

3:08 PM AKDT on October 22, 2014 (GMT -0800)
Bettles | Change Station
CLOSE
Current Station
Airport
Location: Bettles,
Elevation: 643 ft
Nearby Weather Stations

Elev 643 ft 66.91 °N, 151.53 °W | Updated 15 minutes ago

Light Snow
Light Snow
29 °F
Feels Like 23 °F
N
6
Wind Variable Wind from NNE

Today
High -- | Low -- °F
--% Chance of Precip.
Yesterday
High -- | Low -- °F
Precip. -- in
9:27 AM 6:05 PM
Waning Crescent, 1% visible
Pressure 29.76 in
Visibility 10.0 miles
Clouds Few 3200 ft
Overcast 5500 ft
Windchill 23 °F
Dew Point 22 °F
Humidity 75%
Rainfall 0.00 in
Snow Depth 1 in
UV 0 out of 12
Pollen Not available.
Air Quality Not available.
Flu Activity Sporadic
METAR PABT 222253Z 02005KT 10SM -SN FEW032 OVC055 M02/M06 A2972 RMK AO2 SLP077 PCPN VRY LGT T10171056

More Conditions Fewer Conditions

Pressure 29.76 in
Visibility 10.0 miles
Clouds Few 3200 ft
Overcast 5500 ft
Windchill 23 °F
Dew Point 22 °F
Humidity 75%
Rainfall 0.00 in
Snow Depth 1 in
UV 0 out of 12
Pollen Not available.
Air Quality Not available.
Flu Activity Sporadic
METAR PABT 222253Z 02005KT 10SM -SN FEW032 OVC055 M02/M06 A2972 RMK AO2 SLP077 PCPN VRY LGT T10171056

More Conditions Fewer Conditions

10-Day Weather Forecast

Almanac

Astronomy

Oct. 22, 2014 Rise Set
Actual Time 9:27 AM AKDT 6:05 PM AKDT
Civil Twilight 8:31 AM AKDT 7:01 PM AKDT
Nautical Twilight 7:29 AM AKDT 8:02 PM AKDT
Astronomical Twilight 6:27 AM AKDT 9:04 PM AKDT
Moon 7:51 AM AKDT 5:55 PM AKDT
Length of Visible Light 10h 30m
Length of Day
8h 37m
Tomorrow will be 7m 32s shorter.
Waning Crescent, 1% of the Moon is Illuminated
Today
Waning Crescent
Oct 23
New
Oct 30
First Quarter
Nov 6
Full
Nov 14
Last Quarter

Today's Extremes

State Highs State Lows

Community

WunderPhotos

Upload Photos

1,764,071 photos uploaded!

WunderBlogs® & News

Nearby

Snow Depth

Station Depth Elevation
Gobblers Knob 1 in 2030 ft
Coldfoot 5 in 1040 ft
Atigun Pass 15 in 4800 ft
Imnaviat Creek 29 in 3050 ft
Fort Yukon 3 in 430 ft

Earthquake Activity

City Distance Mag. Time & Date
No recent earthquake activity has been reported nearby.
Minimum magnitude displayed is 2.5.

Coastal Water Temperatures

Place Temperature
No Stations Reporting

Nearby Weather Stations